sensor_id;sensor_type;location;lat;lon;timestamp;pressure;altitude;pressure_sealevel;temperature;humidity
76815;BME280;65768;49.906;19.384;2023-04-06T00:01:11;98645.93;;;-2.81;77.30
76815;BME280;65768;49.906;19.384;2023-04-06T00:03:39;98643.27;;;-2.83;77.03
76815;BME280;65768;49.906;19.384;2023-04-06T00:06:07;98643.84;;;-2.87;76.96
76815;BME280;65768;49.906;19.384;2023-04-06T00:08:36;98645.59;;;-2.90;76.91
76815;BME280;65768;49.906;19.384;2023-04-06T00:11:04;98642.39;;;-2.92;76.91
76815;BME280;65768;49.906;19.384;2023-04-06T00:13:34;98639.21;;;-2.93;77.11
76815;BME280;65768;49.906;19.384;2023-04-06T00:16:02;98638.90;;;-2.96;77.31
76815;BME280;65768;49.906;19.384;2023-04-06T00:18:31;98641.42;;;-2.99;77.57
76815;BME280;65768;49.906;19.384;2023-04-06T00:20:59;98639.52;;;-3.06;77.90
76815;BME280;65768;49.906;19.384;2023-04-06T00:23:27;98639.89;;;-3.08;78.64
76815;BME280;65768;49.906;19.384;2023-04-06T00:25:56;98636.50;;;-3.11;78.64
76815;BME280;65768;49.906;19.384;2023-04-06T00:28:24;98637.10;;;-3.15;78.64
76815;BME280;65768;49.906;19.384;2023-04-06T00:30:59;98640.24;;;-3.19;79.22
76815;BME280;65768;49.906;19.384;2023-04-06T00:33:28;98636.69;;;-3.24;78.98
76815;BME280;65768;49.906;19.384;2023-04-06T00:35:56;98620.79;;;-3.33;79.11
76815;BME280;65768;49.906;19.384;2023-04-06T00:38:26;98636.90;;;-3.27;79.56
76815;BME280;65768;49.906;19.384;2023-04-06T00:40:55;98638.50;;;-3.28;80.39
76815;BME280;65768;49.906;19.384;2023-04-06T00:43:23;98641.53;;;-3.26;80.40
76815;BME280;65768;49.906;19.384;2023-04-06T00:45:52;98635.07;;;-3.23;80.16
76815;BME280;65768;49.906;19.384;2023-04-06T00:48:21;98635.59;;;-3.20;80.02
76815;BME280;65768;49.906;19.384;2023-04-06T00:50:50;98632.16;;;-3.20;79.91
76815;BME280;65768;49.906;19.384;2023-04-06T00:53:19;98630.21;;;-3.21;80.12
76815;BME280;65768;49.906;19.384;2023-04-06T00:55:47;98632.09;;;-3.24;80.51
76815;BME280;65768;49.906;19.384;2023-04-06T00:58:16;98632.55;;;-3.28;80.28
76815;BME280;65768;49.906;19.384;2023-04-06T01:00:44;98630.87;;;-3.33;80.41
76815;BME280;65768;49.906;19.384;2023-04-06T01:03:12;98631.27;;;-3.32;81.34
76815;BME280;65768;49.906;19.384;2023-04-06T01:05:42;98634.30;;;-3.30;82.07
76815;BME280;65768;49.906;19.384;2023-04-06T01:08:10;98627.90;;;-3.31;81.61
76815;BME280;65768;49.906;19.384;2023-04-06T01:10:38;98626.05;;;-3.34;80.95
76815;BME280;65768;49.906;19.384;2023-04-06T01:13:07;98630.77;;;-3.32;81.20
76815;BME280;65768;49.906;19.384;2023-04-06T01:15:38;98626.05;;;-3.31;80.55
76815;BME280;65768;49.906;19.384;2023-04-06T01:18:08;98627.70;;;-3.29;79.62
76815;BME280;65768;49.906;19.384;2023-04-06T01:20:38;98628.27;;;-3.09;79.65
76815;BME280;65768;49.906;19.384;2023-04-06T01:23:07;98628.44;;;-3.00;78.80
76815;BME280;65768;49.906;19.384;2023-04-06T01:25:35;98628.44;;;-3.06;79.20
76815;BME280;65768;49.906;19.384;2023-04-06T01:28:04;98628.03;;;-3.12;78.94
76815;BME280;65768;49.906;19.384;2023-04-06T01:30:32;98628.61;;;-3.17;79.37
76815;BME280;65768;49.906;19.384;2023-04-06T01:33:01;98625.12;;;-3.21;79.76
76815;BME280;65768;49.906;19.384;2023-04-06T01:35:30;98627.34;;;-3.21;79.88
76815;BME280;65768;49.906;19.384;2023-04-06T01:37:58;98627.87;;;-3.18;80.31
76815;BME280;65768;49.906;19.384;2023-04-06T01:40:26;98625.90;;;-3.14;79.47
76815;BME280;65768;49.906;19.384;2023-04-06T01:42:54;98626.36;;;-3.07;79.08
76815;BME280;65768;49.906;19.384;2023-04-06T01:45:22;98619.74;;;-2.94;79.43
76815;BME280;65768;49.906;19.384;2023-04-06T01:47:51;98623.35;;;-2.91;78.78
76815;BME280;65768;49.906;19.384;2023-04-06T01:50:21;98621.63;;;-2.99;79.04
76815;BME280;65768;49.906;19.384;2023-04-06T01:52:50;98619.48;;;-2.96;79.19
76815;BME280;65768;49.906;19.384;2023-04-06T01:55:19;98619.56;;;-2.86;78.49
76815;BME280;65768;49.906;19.384;2023-04-06T01:57:48;98615.63;;;-2.83;78.54
76815;BME280;65768;49.906;19.384;2023-04-06T02:00:48;98614.45;;;-2.83;78.78
76815;BME280;65768;49.906;19.384;2023-04-06T02:03:16;98609.17;;;-2.91;79.09
76815;BME280;65768;49.906;19.384;2023-04-06T02:05:44;98605.20;;;-2.95;79.50
76815;BME280;65768;49.906;19.384;2023-04-06T02:08:13;98601.88;;;-2.91;79.54
76815;BME280;65768;49.906;19.384;2023-04-06T02:10:42;98603.57;;;-2.85;80.05
76815;BME280;65768;49.906;19.384;2023-04-06T02:13:10;98602.24;;;-2.84;79.93
76815;BME280;65768;49.906;19.384;2023-04-06T02:15:38;98598.52;;;-2.87;79.92
76815;BME280;65768;49.906;19.384;2023-04-06T02:18:06;98596.42;;;-2.91;81.11
76815;BME280;65768;49.906;19.384;2023-04-06T02:20:35;98598.52;;;-2.98;80.84
76815;BME280;65768;49.906;19.384;2023-04-06T02:23:03;98595.70;;;-3.09;80.68
76815;BME280;65768;49.906;19.384;2023-04-06T02:25:32;98598.89;;;-3.24;80.92
76815;BME280;65768;49.906;19.384;2023-04-06T02:28:01;98597.80;;;-3.36;81.18
76815;BME280;65768;49.906;19.384;2023-04-06T02:30:29;98598.86;;;-3.41;81.80
76815;BME280;65768;49.906;19.384;2023-04-06T02:32:57;98597.59;;;-3.39;83.17
76815;BME280;65768;49.906;19.384;2023-04-06T02:35:28;98601.11;;;-3.32;82.92
76815;BME280;65768;49.906;19.384;2023-04-06T02:37:56;98600.21;;;-3.30;82.95
76815;BME280;65768;49.906;19.384;2023-04-06T02:40:25;98605.11;;;-3.25;82.43
76815;BME280;65768;49.906;19.384;2023-04-06T02:42:54;98605.52;;;-3.18;82.46
76815;BME280;65768;49.906;19.384;2023-04-06T02:45:23;98607.16;;;-3.19;82.02
76815;BME280;65768;49.906;19.384;2023-04-06T02:47:51;98610.44;;;-3.19;82.27
76815;BME280;65768;49.906;19.384;2023-04-06T02:50:21;98609.21;;;-3.19;82.73
76815;BME280;65768;49.906;19.384;2023-04-06T02:52:49;98612.08;;;-3.26;83.09
76815;BME280;65768;49.906;19.384;2023-04-06T02:55:20;98610.21;;;-3.36;83.25
76815;BME280;65768;49.906;19.384;2023-04-06T02:57:48;98609.33;;;-3.45;83.48
76815;BME280;65768;49.906;19.384;2023-04-06T03:00:18;98615.35;;;-3.53;83.39
76815;BME280;65768;49.906;19.384;2023-04-06T03:02:46;98614.95;;;-3.59;83.44
76815;BME280;65768;49.906;19.384;2023-04-06T03:05:16;98616.23;;;-3.63;83.76
76815;BME280;65768;49.906;19.384;2023-04-06T03:07:45;98620.21;;;-3.65;84.08
76815;BME280;65768;49.906;19.384;2023-04-06T03:10:14;98621.81;;;-3.67;83.86
76815;BME280;65768;49.906;19.384;2023-04-06T03:12:43;98623.62;;;-3.68;84.04
76815;BME280;65768;49.906;19.384;2023-04-06T03:15:13;98622.45;;;-3.73;83.83
76815;BME280;65768;49.906;19.384;2023-04-06T03:17:41;98625.64;;;-3.76;84.01
76815;BME280;65768;49.906;19.384;2023-04-06T03:20:09;98626.09;;;-3.75;84.04
76815;BME280;65768;49.906;19.384;2023-04-06T03:22:37;98625.20;;;-3.72;83.97
76815;BME280;65768;49.906;19.384;2023-04-06T03:25:06;98626.64;;;-3.71;84.18
76815;BME280;65768;49.906;19.384;2023-04-06T03:27:35;98628.36;;;-3.74;83.80
76815;BME280;65768;49.906;19.384;2023-04-06T03:30:04;98632.91;;;-3.83;83.32
76815;BME280;65768;49.906;19.384;2023-04-06T03:32:32;98630.44;;;-3.87;83.91
76815;BME280;65768;49.906;19.384;2023-04-06T03:35:00;98632.22;;;-3.91;84.15
76815;BME280;65768;49.906;19.384;2023-04-06T03:37:29;98627.00;;;-3.98;83.55
76815;BME280;65768;49.906;19.384;2023-04-06T03:39:57;98631.23;;;-4.04;83.41
76815;BME280;65768;49.906;19.384;2023-04-06T03:42:26;98631.69;;;-4.02;84.17
76815;BME280;65768;49.906;19.384;2023-04-06T03:44:54;98628.86;;;-3.90;85.04
76815;BME280;65768;49.906;19.384;2023-04-06T03:47:23;98627.29;;;-3.85;84.99
76815;BME280;65768;49.906;19.384;2023-04-06T03:49:51;98630.63;;;-3.89;84.30
76815;BME280;65768;49.906;19.384;2023-04-06T03:52:19;98634.43;;;-3.93;84.53
76815;BME280;65768;49.906;19.384;2023-04-06T03:54:47;98635.27;;;-3.93;84.38
76815;BME280;65768;49.906;19.384;2023-04-06T03:57:16;98635.98;;;-3.96;84.24
76815;BME280;65768;49.906;19.384;2023-04-06T03:59:45;98639.13;;;-3.98;84.48
76815;BME280;65768;49.906;19.384;2023-04-06T04:02:14;98639.04;;;-3.99;84.33
76815;BME280;65768;49.906;19.384;2023-04-06T04:04:44;98634.30;;;-4.01;84.10
76815;BME280;65768;49.906;19.384;2023-04-06T04:07:12;98635.52;;;-4.03;83.83
76815;BME280;65768;49.906;19.384;2023-04-06T04:09:41;98638.18;;;-4.04;83.88
76815;BME280;65768;49.906;19.384;2023-04-06T04:12:09;98638.29;;;-4.00;84.02
76815;BME280;65768;49.906;19.384;2023-04-06T04:14:37;98639.70;;;-3.94;83.88
76815;BME280;65768;49.906;19.384;2023-04-06T04:17:06;98644.96;;;-3.86;84.10
76815;BME280;65768;49.906;19.384;2023-04-06T04:19:34;98646.46;;;-3.78;83.94
76815;BME280;65768;49.906;19.384;2023-04-06T04:22:03;98643.73;;;-3.70;83.31
76815;BME280;65768;49.906;19.384;2023-04-06T04:24:33;98647.15;;;-3.64;82.54
76815;BME280;65768;49.906;19.384;2023-04-06T04:27:01;98645.27;;;-3.62;82.48
76815;BME280;65768;49.906;19.384;2023-04-06T04:29:29;98641.88;;;-3.62;82.09
76815;BME280;65768;49.906;19.384;2023-04-06T04:31:58;98642.14;;;-3.63;81.77
76815;BME280;65768;49.906;19.384;2023-04-06T04:34:26;98637.92;;;-3.62;82.10
76815;BME280;65768;49.906;19.384;2023-04-06T04:36:54;98640.25;;;-3.61;83.07
76815;BME280;65768;49.906;19.384;2023-04-06T04:39:22;98643.44;;;-3.64;84.34
76815;BME280;65768;49.906;19.384;2023-04-06T04:41:50;98638.11;;;-3.65;84.27
76815;BME280;65768;49.906;19.384;2023-04-06T04:44:20;98637.30;;;-3.61;83.55
76815;BME280;65768;49.906;19.384;2023-04-06T04:46:48;98641.92;;;-3.58;84.55
76815;BME280;65768;49.906;19.384;2023-04-06T04:49:16;98639.71;;;-3.56;83.91
76815;BME280;65768;49.906;19.384;2023-04-06T04:51:44;98640.81;;;-3.52;84.54
76815;BME280;65768;49.906;19.384;2023-04-06T04:54:13;98639.99;;;-3.45;84.13
76815;BME280;65768;49.906;19.384;2023-04-06T04:56:41;98635.02;;;-3.38;83.48
76815;BME280;65768;49.906;19.384;2023-04-06T04:59:10;98632.27;;;-3.32;84.48
76815;BME280;65768;49.906;19.384;2023-04-06T05:01:38;98632.64;;;-3.24;84.87
76815;BME280;65768;49.906;19.384;2023-04-06T05:04:07;98637.23;;;-3.12;85.00
76815;BME280;65768;49.906;19.384;2023-04-06T05:06:35;98632.44;;;-3.01;84.93
76815;BME280;65768;49.906;19.384;2023-04-06T05:09:04;98633.50;;;-2.92;84.28
76815;BME280;65768;49.906;19.384;2023-04-06T05:11:32;98635.26;;;-2.83;84.46
76815;BME280;65768;49.906;19.384;2023-04-06T05:14:00;98637.01;;;-2.71;84.67
76815;BME280;65768;49.906;19.384;2023-04-06T05:16:29;98633.92;;;-2.62;83.13
76815;BME280;65768;49.906;19.384;2023-04-06T05:18:59;98633.66;;;-2.55;83.29
76815;BME280;65768;49.906;19.384;2023-04-06T05:21:27;98637.63;;;-2.45;83.27
76815;BME280;65768;49.906;19.384;2023-04-06T05:23:55;98636.33;;;-2.35;83.33
76815;BME280;65768;49.906;19.384;2023-04-06T05:26:24;98632.82;;;-2.25;82.68
76815;BME280;65768;49.906;19.384;2023-04-06T05:28:53;98632.16;;;-2.16;82.01
76815;BME280;65768;49.906;19.384;2023-04-06T05:31:23;98633.06;;;-2.09;81.84
76815;BME280;65768;49.906;19.384;2023-04-06T05:33:51;98630.55;;;-1.99;82.30
76815;BME280;65768;49.906;19.384;2023-04-06T05:36:20;98630.15;;;-1.91;81.28
76815;BME280;65768;49.906;19.384;2023-04-06T05:38:49;98628.41;;;-1.91;80.87
76815;BME280;65768;49.906;19.384;2023-04-06T05:41:19;98624.08;;;-1.86;81.11
76815;BME280;65768;49.906;19.384;2023-04-06T05:43:49;98626.80;;;-1.80;80.66
76815;BME280;65768;49.906;19.384;2023-04-06T05:46:18;98620.61;;;-1.78;80.48
76815;BME280;65768;49.906;19.384;2023-04-06T05:48:47;98615.34;;;-1.68;80.34
76815;BME280;65768;49.906;19.384;2023-04-06T05:51:16;98617.69;;;-1.59;79.67
76815;BME280;65768;49.906;19.384;2023-04-06T05:53:44;98616.91;;;-1.51;80.15
76815;BME280;65768;49.906;19.384;2023-04-06T05:56:13;98620.46;;;-1.42;79.23
76815;BME280;65768;49.906;19.384;2023-04-06T05:58:42;98619.42;;;-1.36;79.46
76815;BME280;65768;49.906;19.384;2023-04-06T06:01:10;98620.98;;;-1.30;79.22
76815;BME280;65768;49.906;19.384;2023-04-06T06:03:39;98615.05;;;-1.25;78.37
76815;BME280;65768;49.906;19.384;2023-04-06T06:06:07;98619.72;;;-1.18;77.84
76815;BME280;65768;49.906;19.384;2023-04-06T06:08:35;98609.31;;;-1.07;78.47
76815;BME280;65768;49.906;19.384;2023-04-06T06:11:03;98612.98;;;-1.00;77.52
76815;BME280;65768;49.906;19.384;2023-04-06T06:13:31;98612.10;;;-0.87;77.19
76815;BME280;65768;49.906;19.384;2023-04-06T06:16:00;98610.55;;;-0.73;76.16
76815;BME280;65768;49.906;19.384;2023-04-06T06:18:33;98603.96;;;-0.51;76.93
76815;BME280;65768;49.906;19.384;2023-04-06T06:21:03;98609.86;;;-0.36;76.73
76815;BME280;65768;49.906;19.384;2023-04-06T06:23:32;98612.14;;;-0.25;75.36
76815;BME280;65768;49.906;19.384;2023-04-06T06:26:01;98615.21;;;-0.21;74.73
76815;BME280;65768;49.906;19.384;2023-04-06T06:28:30;98619.50;;;-0.11;74.05
76815;BME280;65768;49.906;19.384;2023-04-06T06:30:59;98615.52;;;0.10;73.94
76815;BME280;65768;49.906;19.384;2023-04-06T06:33:28;98617.35;;;0.23;72.21
76815;BME280;65768;49.906;19.384;2023-04-06T06:35:57;98615.77;;;0.37;71.74
76815;BME280;65768;49.906;19.384;2023-04-06T06:38:25;98620.13;;;0.65;72.49
76815;BME280;65768;49.906;19.384;2023-04-06T06:40:54;98615.20;;;1.08;72.18
76815;BME280;65768;49.906;19.384;2023-04-06T06:43:23;98607.62;;;1.35;70.02
76815;BME280;65768;49.906;19.384;2023-04-06T06:45:51;98613.72;;;1.53;69.95
76815;BME280;65768;49.906;19.384;2023-04-06T06:48:20;98611.52;;;1.42;70.30
76815;BME280;65768;49.906;19.384;2023-04-06T06:50:48;98610.25;;;1.56;68.32
76815;BME280;65768;49.906;19.384;2023-04-06T06:53:16;98612.23;;;1.58;66.27
76815;BME280;65768;49.906;19.384;2023-04-06T06:55:44;98611.86;;;1.75;65.85
76815;BME280;65768;49.906;19.384;2023-04-06T06:58:13;98615.95;;;1.86;63.96
76815;BME280;65768;49.906;19.384;2023-04-06T07:00:42;98612.91;;;1.96;65.20
76815;BME280;65768;49.906;19.384;2023-04-06T07:03:11;98612.08;;;1.97;63.66
76815;BME280;65768;49.906;19.384;2023-04-06T07:05:45;98610.58;;;2.02;62.74
76815;BME280;65768;49.906;19.384;2023-04-06T07:08:22;98612.69;;;2.08;63.21
76815;BME280;65768;49.906;19.384;2023-04-06T07:10:52;98615.35;;;1.92;63.07
76815;BME280;65768;49.906;19.384;2023-04-06T07:13:21;98615.67;;;1.71;62.32
76815;BME280;65768;49.906;19.384;2023-04-06T07:15:52;98617.73;;;1.35;61.60
76815;BME280;65768;49.906;19.384;2023-04-06T07:18:21;98615.31;;;1.22;61.61
76815;BME280;65768;49.906;19.384;2023-04-06T07:20:50;98614.03;;;1.29;60.07
76815;BME280;65768;49.906;19.384;2023-04-06T07:23:18;98614.85;;;1.64;63.01
76815;BME280;65768;49.906;19.384;2023-04-06T07:25:46;98611.92;;;1.89;61.06
76815;BME280;65768;49.906;19.384;2023-04-06T07:28:15;98612.39;;;2.04;61.09
76815;BME280;65768;49.906;19.384;2023-04-06T07:30:43;98614.45;;;1.96;60.75
76815;BME280;65768;49.906;19.384;2023-04-06T07:33:12;98608.94;;;1.87;60.18
76815;BME280;65768;49.906;19.384;2023-04-06T07:35:40;98609.43;;;2.03;61.92
76815;BME280;65768;49.906;19.384;2023-04-06T07:38:08;98616.30;;;1.91;59.20
76815;BME280;65768;49.906;19.384;2023-04-06T07:40:37;98614.08;;;1.70;59.48
76815;BME280;65768;49.906;19.384;2023-04-06T07:43:05;98608.95;;;1.62;59.67
76815;BME280;65768;49.906;19.384;2023-04-06T07:45:34;98611.71;;;1.63;60.73
76815;BME280;65768;49.906;19.384;2023-04-06T07:48:03;98615.80;;;1.54;59.97
76815;BME280;65768;49.906;19.384;2023-04-06T07:50:33;98613.42;;;1.58;60.64
76815;BME280;65768;49.906;19.384;2023-04-06T07:53:02;98615.13;;;1.62;61.08
76815;BME280;65768;49.906;19.384;2023-04-06T07:55:30;98613.82;;;1.72;61.07
76815;BME280;65768;49.906;19.384;2023-04-06T07:57:59;98613.83;;;1.76;59.86
76815;BME280;65768;49.906;19.384;2023-04-06T08:00:27;98612.36;;;1.74;59.79
76815;BME280;65768;49.906;19.384;2023-04-06T08:02:55;98611.68;;;1.79;59.61
76815;BME280;65768;49.906;19.384;2023-04-06T08:05:25;98613.72;;;1.66;59.16
76815;BME280;65768;49.906;19.384;2023-04-06T08:07:54;98613.09;;;1.58;59.96
76815;BME280;65768;49.906;19.384;2023-04-06T08:10:22;98616.80;;;1.33;59.26
76815;BME280;65768;49.906;19.384;2023-04-06T08:12:50;98608.89;;;1.33;59.31
76815;BME280;65768;49.906;19.384;2023-04-06T08:15:19;98610.49;;;1.38;59.87
76815;BME280;65768;49.906;19.384;2023-04-06T08:17:47;98611.91;;;1.47;59.52
76815;BME280;65768;49.906;19.384;2023-04-06T08:20:16;98610.05;;;1.52;58.91
76815;BME280;65768;49.906;19.384;2023-04-06T08:22:45;98609.61;;;1.74;58.78
76815;BME280;65768;49.906;19.384;2023-04-06T08:25:16;98605.21;;;1.89;57.98
76815;BME280;65768;49.906;19.384;2023-04-06T08:27:44;98604.38;;;2.02;57.91
76815;BME280;65768;49.906;19.384;2023-04-06T08:30:13;98604.46;;;2.13;57.48
76815;BME280;65768;49.906;19.384;2023-04-06T08:32:44;98605.41;;;2.06;57.55
76815;BME280;65768;49.906;19.384;2023-04-06T08:35:14;98607.58;;;1.66;57.05
76815;BME280;65768;49.906;19.384;2023-04-06T08:37:42;98599.64;;;1.29;57.54
76815;BME280;65768;49.906;19.384;2023-04-06T08:40:12;98599.91;;;1.35;58.96
76815;BME280;65768;49.906;19.384;2023-04-06T08:42:44;98596.63;;;1.31;58.75
76815;BME280;65768;49.906;19.384;2023-04-06T08:45:15;98600.82;;;1.49;57.29
76815;BME280;65768;49.906;19.384;2023-04-06T08:47:44;98597.10;;;1.50;57.82
76815;BME280;65768;49.906;19.384;2023-04-06T08:50:12;98597.80;;;1.54;58.96
76815;BME280;65768;49.906;19.384;2023-04-06T08:52:43;98591.94;;;1.62;59.62
76815;BME280;65768;49.906;19.384;2023-04-06T08:55:15;98592.36;;;1.52;58.76
76815;BME280;65768;49.906;19.384;2023-04-06T08:57:45;98586.69;;;1.39;57.30
76815;BME280;65768;49.906;19.384;2023-04-06T09:00:15;98587.45;;;1.41;57.60
76815;BME280;65768;49.906;19.384;2023-04-06T09:02:46;98587.14;;;1.54;58.73
76815;BME280;65768;49.906;19.384;2023-04-06T09:05:15;98585.23;;;1.71;57.88
76815;BME280;65768;49.906;19.384;2023-04-06T09:07:44;98580.13;;;1.76;56.63
76815;BME280;65768;49.906;19.384;2023-04-06T09:10:16;98576.65;;;2.05;58.44
76815;BME280;65768;49.906;19.384;2023-04-06T09:12:45;98574.59;;;2.18;56.27
76815;BME280;65768;49.906;19.384;2023-04-06T09:15:21;98569.42;;;2.36;55.95
76815;BME280;65768;49.906;19.384;2023-04-06T09:17:49;98565.28;;;2.40;56.56
76815;BME280;65768;49.906;19.384;2023-04-06T09:20:24;98567.73;;;2.36;56.39
76815;BME280;65768;49.906;19.384;2023-04-06T09:22:59;98567.67;;;2.48;55.31
76815;BME280;65768;49.906;19.384;2023-04-06T09:25:28;98565.80;;;2.53;56.02
76815;BME280;65768;49.906;19.384;2023-04-06T09:28:03;98563.34;;;2.43;55.98
76815;BME280;65768;49.906;19.384;2023-04-06T09:30:32;98560.05;;;2.38;55.14
76815;BME280;65768;49.906;19.384;2023-04-06T09:33:01;98558.11;;;2.60;54.74
76815;BME280;65768;49.906;19.384;2023-04-06T09:35:29;98553.13;;;2.88;55.11
76815;BME280;65768;49.906;19.384;2023-04-06T09:37:59;98554.59;;;2.82;55.17
76815;BME280;65768;49.906;19.384;2023-04-06T09:40:27;98553.14;;;2.65;53.87
76815;BME280;65768;49.906;19.384;2023-04-06T12:31:38;98491.58;;;1.75;70.77
76815;BME280;65768;49.906;19.384;2023-04-06T16:12:51;98456.55;;;0.08;93.05
76815;BME280;65768;49.906;19.384;2023-04-06T22:38:05;98334.04;;;-0.28;100.00
